createdAt,value
2023-03-15T00:00:37.575Z,2.31
2023-03-15T00:01:37.575Z,2.34
2023-03-15T00:02:37.584Z,2.34
2023-03-15T00:03:37.740Z,2.35
2023-03-15T00:04:37.524Z,2.28
2023-03-15T00:05:37.502Z,2.27
2023-03-15T00:06:37.505Z,2.25
2023-03-15T00:07:37.473Z,2.23
2023-03-15T00:08:37.499Z,2.27
2023-03-15T00:09:37.453Z,2.30
2023-03-15T00:10:37.442Z,2.31
2023-03-15T00:11:37.448Z,2.31
2023-03-15T00:12:37.416Z,2.31
2023-03-15T00:13:37.418Z,2.30
2023-03-15T00:14:37.392Z,2.31
2023-03-15T00:15:37.425Z,2.34
2023-03-15T00:16:37.381Z,2.35
2023-03-15T00:17:37.352Z,2.35
2023-03-15T00:18:37.339Z,2.31
2023-03-15T00:19:37.319Z,2.28
2023-03-15T00:20:37.310Z,2.27
2023-03-15T00:21:37.308Z,2.25
2023-03-15T00:22:37.293Z,2.24
2023-03-15T00:23:37.269Z,2.23
2023-03-15T00:24:37.258Z,2.25
2023-03-15T00:25:37.246Z,2.25
2023-03-15T00:26:37.251Z,2.25
2023-03-15T00:27:37.220Z,2.21
2023-03-15T00:28:37.219Z,2.23
2023-03-15T00:29:37.196Z,2.24
2023-03-15T00:30:37.187Z,2.27
2023-03-15T00:31:37.231Z,2.27
2023-03-15T00:32:37.173Z,2.27
2023-03-15T00:33:37.146Z,2.23
2023-03-15T00:34:37.143Z,2.21
2023-03-15T00:35:37.147Z,2.21
2023-03-15T00:36:37.125Z,2.20
2023-03-15T00:37:37.097Z,2.20
2023-03-15T00:38:37.090Z,2.18
2023-03-15T00:39:37.083Z,2.18
2023-03-15T00:40:37.074Z,2.17
2023-03-15T00:41:37.066Z,2.18
2023-03-15T00:42:37.039Z,2.18
2023-03-15T00:43:37.017Z,2.18
2023-03-15T00:44:37.012Z,2.17
2023-03-15T00:45:37.020Z,2.17
2023-03-15T00:46:37.008Z,2.16
2023-03-15T00:47:36.988Z,2.17
2023-03-15T00:48:36.968Z,2.18
2023-03-15T00:49:37.944Z,2.23
2023-03-15T00:50:36.936Z,2.27
2023-03-15T00:51:36.914Z,2.27
2023-03-15T00:52:36.939Z,2.27
2023-03-15T00:53:36.893Z,2.25
2023-03-15T00:54:36.884Z,2.28
2023-03-15T00:55:36.871Z,2.31
2023-03-15T00:56:36.853Z,2.28
2023-03-15T00:57:36.859Z,2.30
2023-03-15T00:58:36.832Z,2.28
2023-03-15T00:59:36.820Z,2.31
2023-03-15T01:00:36.800Z,2.31
2023-03-15T01:01:36.830Z,2.30
2023-03-15T01:02:36.835Z,2.35
2023-03-15T01:03:37.138Z,2.38
2023-03-15T01:04:36.749Z,2.36
2023-03-15T01:05:36.751Z,2.35
2023-03-15T01:06:36.735Z,2.31
2023-03-15T01:07:36.746Z,2.31
2023-03-15T01:08:36.709Z,2.31
2023-03-15T01:09:36.696Z,2.35
2023-03-15T01:10:36.758Z,2.38
2023-03-15T01:11:36.676Z,2.39
2023-03-15T01:12:36.689Z,2.41
2023-03-15T01:13:36.645Z,2.41
2023-03-15T01:14:36.623Z,2.39
2023-03-15T01:15:36.618Z,2.38
2023-03-15T01:16:36.601Z,2.39
2023-03-15T01:17:36.648Z,2.41
2023-03-15T01:18:36.567Z,2.36
2023-03-15T01:19:36.596Z,2.35
2023-03-15T01:20:36.557Z,2.30
2023-03-15T01:21:36.542Z,2.25
2023-03-15T01:22:36.535Z,2.23
2023-03-15T01:23:36.529Z,2.18
2023-03-15T01:24:36.495Z,2.14
2023-03-15T01:25:36.484Z,2.18
2023-03-15T01:26:36.465Z,2.21
2023-03-15T01:27:36.477Z,2.23
2023-03-15T01:28:36.445Z,2.21
2023-03-15T01:29:36.446Z,2.21
2023-03-15T01:30:36.414Z,2.21
2023-03-15T01:31:36.465Z,2.27
2023-03-15T01:32:36.464Z,2.27
2023-03-15T01:33:36.388Z,2.28
2023-03-15T01:34:36.369Z,2.30
2023-03-15T01:35:36.397Z,2.28
2023-03-15T01:36:36.341Z,2.27
2023-03-15T01:37:36.353Z,2.25
2023-03-15T01:38:36.311Z,2.20
2023-03-15T01:39:36.310Z,2.21
2023-03-15T01:40:36.290Z,2.21
2023-03-15T01:41:36.281Z,2.21
2023-03-15T01:42:36.271Z,2.27
2023-03-15T01:43:36.252Z,2.36
2023-03-15T01:44:36.260Z,2.36
2023-03-15T01:45:36.231Z,2.38
2023-03-15T01:46:36.239Z,2.36
2023-03-15T01:47:36.220Z,2.39
2023-03-15T01:48:36.192Z,2.38
2023-03-15T01:49:36.179Z,2.41
2023-03-15T01:50:36.158Z,2.41
2023-03-15T01:51:36.148Z,2.42
2023-03-15T01:52:36.167Z,2.42
2023-03-15T01:53:36.130Z,2.45
2023-03-15T01:54:36.107Z,2.52
2023-03-15T01:55:36.107Z,2.57
2023-03-15T01:56:36.091Z,2.64
2023-03-15T01:57:36.090Z,2.67
2023-03-15T01:58:36.905Z,2.69
2023-03-15T01:59:36.055Z,2.74
2023-03-15T02:00:36.080Z,2.75
2023-03-15T02:01:36.050Z,2.79
2023-03-15T02:02:36.087Z,2.79
2023-03-15T02:03:36.007Z,2.84
2023-03-15T02:04:35.985Z,2.84
2023-03-15T02:05:35.987Z,2.85
2023-03-15T02:06:35.963Z,2.85
2023-03-15T02:07:35.964Z,2.85
2023-03-15T02:08:35.936Z,2.89
2023-03-15T02:09:35.951Z,2.92
2023-03-15T02:10:35.905Z,2.95
2023-03-15T02:11:35.903Z,2.95
2023-03-15T02:12:35.885Z,2.95
2023-03-15T02:13:43.377Z,2.93
2023-03-15T02:14:35.851Z,2.96
2023-03-15T02:15:35.854Z,2.99
2023-03-15T02:16:35.894Z,3.00
2023-03-15T02:17:35.848Z,3.05
2023-03-15T02:18:35.817Z,3.06
2023-03-15T02:19:35.804Z,3.10
2023-03-15T02:20:35.785Z,3.13
2023-03-15T02:21:35.780Z,3.11
2023-03-15T02:22:35.778Z,3.10
2023-03-15T02:23:35.752Z,3.10
2023-03-15T02:24:35.737Z,3.10
2023-03-15T02:25:35.725Z,3.11
2023-03-15T02:26:35.717Z,3.10
2023-03-15T02:27:35.727Z,3.10
2023-03-15T02:28:35.695Z,3.08
2023-03-15T02:29:35.707Z,3.10
2023-03-15T02:30:35.657Z,3.10
2023-03-15T02:31:35.648Z,3.08
2023-03-15T02:32:35.682Z,3.10
2023-03-15T02:33:35.621Z,3.10
2023-03-15T02:34:35.609Z,3.11
2023-03-15T02:35:35.638Z,3.10
2023-03-15T02:36:35.603Z,3.11
2023-03-15T02:37:35.595Z,3.13
2023-03-15T02:38:35.564Z,3.15
2023-03-15T02:39:35.556Z,3.17
2023-03-15T02:40:35.530Z,3.18
2023-03-15T02:41:35.521Z,3.17
2023-03-15T02:42:35.520Z,3.17
2023-03-15T02:43:35.492Z,3.17
2023-03-15T02:44:35.482Z,3.14
2023-03-15T02:45:35.526Z,3.15
2023-03-15T02:46:35.453Z,3.17
2023-03-15T02:47:35.469Z,3.20
2023-03-15T02:48:35.430Z,3.20
2023-03-15T02:49:35.433Z,3.20
2023-03-15T02:50:35.404Z,3.18
2023-03-15T02:51:35.413Z,3.18
2023-03-15T02:52:35.401Z,3.20
2023-03-15T02:53:35.372Z,3.20
2023-03-15T02:54:35.351Z,3.20
2023-03-15T02:55:35.343Z,3.18
2023-03-15T02:56:35.332Z,3.23
2023-03-15T02:57:35.336Z,3.21
2023-03-15T02:58:35.302Z,3.21
2023-03-15T02:59:35.302Z,3.17
2023-03-15T03:00:35.285Z,3.17
2023-03-15T03:01:35.293Z,3.13
2023-03-15T03:02:35.286Z,3.13
2023-03-15T03:03:35.251Z,3.10
2023-03-15T03:04:35.231Z,3.10
2023-03-15T03:05:35.220Z,3.13
2023-03-15T03:06:35.210Z,3.10
2023-03-15T03:07:35.221Z,3.10
2023-03-15T03:08:35.172Z,3.10
2023-03-15T03:09:35.169Z,3.08
2023-03-15T03:10:35.160Z,3.06
2023-03-15T03:11:35.145Z,3.05
2023-03-15T03:12:35.139Z,3.05
2023-03-15T03:13:35.139Z,3.05
2023-03-15T03:14:35.099Z,3.03
2023-03-15T03:15:35.093Z,3.05
2023-03-15T03:16:35.126Z,3.08
2023-03-15T03:17:35.092Z,3.06
2023-03-15T03:18:35.061Z,3.06
2023-03-15T03:19:35.049Z,3.06
2023-03-15T03:20:35.039Z,3.10
2023-03-15T03:21:35.017Z,3.10
2023-03-15T03:22:35.004Z,3.08
2023-03-15T03:23:35.011Z,3.08
2023-03-15T03:24:34.962Z,3.06
2023-03-15T03:25:34.963Z,3.05
2023-03-15T03:26:34.948Z,3.06
2023-03-15T03:27:34.951Z,3.06
2023-03-15T03:28:34.920Z,3.06
2023-03-15T03:29:34.910Z,3.08
2023-03-15T03:30:34.930Z,3.08
2023-03-15T03:31:34.893Z,3.08
2023-03-15T03:32:34.902Z,3.08
2023-03-15T03:33:34.902Z,3.06
2023-03-15T03:34:34.839Z,3.06
2023-03-15T03:35:36.069Z,3.08
2023-03-15T03:36:34.830Z,3.10
2023-03-15T03:37:34.847Z,3.11
2023-03-15T03:38:34.822Z,3.10
2023-03-15T03:39:34.791Z,3.11
2023-03-15T03:40:34.795Z,3.11
2023-03-15T03:41:34.757Z,3.10
2023-03-15T03:42:34.750Z,3.08
2023-03-15T03:43:34.732Z,3.08
2023-03-15T03:44:34.707Z,3.10
2023-03-15T03:45:34.704Z,3.06
2023-03-15T03:46:34.735Z,3.08
2023-03-15T03:47:34.698Z,3.05
2023-03-15T03:48:34.683Z,3.05
2023-03-15T03:49:34.655Z,3.05
2023-03-15T03:50:34.633Z,3.03
2023-03-15T03:51:34.624Z,2.97
2023-03-15T03:52:34.622Z,2.90
2023-03-15T03:53:34.607Z,2.93
2023-03-15T03:54:34.587Z,2.87
2023-03-15T03:55:34.571Z,2.79
2023-03-15T03:56:34.561Z,2.79
2023-03-15T03:57:34.571Z,2.79
2023-03-15T03:58:34.533Z,2.79
2023-03-15T03:59:34.522Z,2.82
2023-03-15T04:00:34.501Z,2.82
2023-03-15T04:01:34.494Z,2.82
2023-03-15T04:02:34.572Z,2.81
2023-03-15T04:03:34.479Z,2.79
2023-03-15T04:04:34.482Z,2.81
2023-03-15T04:05:34.458Z,2.81
2023-03-15T04:06:34.429Z,2.77
2023-03-15T04:07:34.418Z,2.74
2023-03-15T04:08:34.430Z,2.72
2023-03-15T04:09:34.387Z,2.71
2023-03-15T04:10:34.411Z,2.71
2023-03-15T04:11:34.367Z,2.72
2023-03-15T04:12:34.375Z,2.72
2023-03-15T04:13:43.036Z,2.72
2023-03-15T04:14:34.326Z,2.67
2023-03-15T04:15:34.322Z,2.67
2023-03-15T04:16:34.296Z,2.67
2023-03-15T04:17:34.293Z,2.67
2023-03-15T04:18:34.304Z,2.67
2023-03-15T04:19:34.273Z,2.66
2023-03-15T04:20:34.252Z,2.69
2023-03-15T04:21:34.242Z,2.67
2023-03-15T04:22:34.222Z,2.71
2023-03-15T04:23:34.231Z,2.74
2023-03-15T04:24:34.195Z,2.81
2023-03-15T04:25:34.191Z,2.81
2023-03-15T04:26:34.172Z,2.81
2023-03-15T04:27:34.162Z,2.81
2023-03-15T04:28:34.166Z,2.79
2023-03-15T04:29:34.142Z,2.79
2023-03-15T04:30:34.136Z,2.79
2023-03-15T04:31:34.174Z,2.84
2023-03-15T04:32:34.151Z,2.82
2023-03-15T04:33:34.114Z,2.82
2023-03-15T04:34:34.088Z,2.79
2023-03-15T04:35:34.087Z,2.75
2023-03-15T04:36:34.045Z,2.74
2023-03-15T04:37:34.055Z,2.71
2023-03-15T04:38:34.052Z,2.66
2023-03-15T04:39:34.016Z,2.64
2023-03-15T04:40:34.005Z,2.63
2023-03-15T04:41:33.987Z,2.61
2023-03-15T04:42:33.986Z,2.63
2023-03-15T04:43:33.981Z,2.63
2023-03-15T04:44:33.946Z,2.60
2023-03-15T04:45:33.949Z,2.59
2023-03-15T04:46:34.004Z,2.59
2023-03-15T04:47:33.914Z,2.57
2023-03-15T04:48:33.914Z,2.54
2023-03-15T04:49:33.889Z,2.56
2023-03-15T04:50:33.874Z,2.56
2023-03-15T04:51:33.865Z,2.56
2023-03-15T04:52:33.844Z,2.60
2023-03-15T04:53:33.873Z,2.63
2023-03-15T04:54:33.823Z,2.66
2023-03-15T04:55:33.814Z,2.72
2023-03-15T04:56:33.802Z,2.71
2023-03-15T04:57:33.785Z,2.74
2023-03-15T04:58:33.785Z,2.71
2023-03-15T04:59:33.764Z,2.71
2023-03-15T05:00:33.798Z,2.69
2023-03-15T05:01:33.746Z,2.69
2023-03-15T05:02:33.717Z,2.67
2023-03-15T05:03:33.722Z,2.67
2023-03-15T05:04:33.692Z,2.69
2023-03-15T05:05:33.683Z,2.71
2023-03-15T05:06:33.691Z,2.72
2023-03-15T05:07:33.664Z,2.74
2023-03-15T05:08:33.670Z,2.81
2023-03-15T05:09:33.631Z,2.84
2023-03-15T05:10:33.629Z,2.82
2023-03-15T05:11:33.608Z,2.84
2023-03-15T05:12:33.600Z,2.84
2023-03-15T05:13:33.594Z,2.85
2023-03-15T05:14:33.574Z,2.85
2023-03-15T05:15:33.548Z,2.85
2023-03-15T05:16:33.621Z,2.85
2023-03-15T05:17:33.528Z,2.90
2023-03-15T05:18:33.537Z,2.89
2023-03-15T05:19:33.507Z,2.90
2023-03-15T05:20:33.521Z,2.89
2023-03-15T05:21:33.469Z,2.89
2023-03-15T05:22:33.467Z,2.89
2023-03-15T05:23:33.457Z,2.87
2023-03-15T05:24:33.444Z,2.85
2023-03-15T05:25:33.427Z,2.84
2023-03-15T05:26:33.416Z,2.81
2023-03-15T05:27:33.401Z,2.82
2023-03-15T05:28:33.422Z,2.82
2023-03-15T05:29:33.386Z,2.84
2023-03-15T05:30:33.369Z,2.84
2023-03-15T05:31:33.398Z,2.81
2023-03-15T05:32:33.373Z,2.84
2023-03-15T05:33:33.326Z,2.82
2023-03-15T05:34:33.309Z,2.82
2023-03-15T05:35:33.337Z,2.84
2023-03-15T05:36:33.284Z,2.82
2023-03-15T05:37:33.263Z,2.84
2023-03-15T05:38:33.274Z,2.85
2023-03-15T05:39:33.286Z,2.84
2023-03-15T05:40:33.254Z,2.84
2023-03-15T05:41:33.213Z,2.85
2023-03-15T05:42:33.216Z,2.85
2023-03-15T05:43:33.203Z,2.82
2023-03-15T05:44:33.186Z,2.84
2023-03-15T05:45:33.175Z,2.82
2023-03-15T05:46:40.686Z,2.81
2023-03-15T05:47:34.070Z,2.84
2023-03-15T05:48:33.156Z,2.84
2023-03-15T05:49:33.118Z,2.82
2023-03-15T05:50:33.115Z,2.84
2023-03-15T05:51:33.107Z,2.82
2023-03-15T05:52:33.086Z,2.82
2023-03-15T05:53:33.086Z,2.84
2023-03-15T05:54:33.062Z,2.84
2023-03-15T05:55:33.044Z,2.85
2023-03-15T05:56:33.034Z,2.84
2023-03-15T05:57:33.019Z,2.87
2023-03-15T05:58:33.023Z,2.87
2023-03-15T05:59:33.023Z,2.89
2023-03-15T06:00:32.983Z,2.89
2023-03-15T06:01:32.961Z,2.90
2023-03-15T06:02:32.954Z,2.92
2023-03-15T06:03:32.995Z,2.90
2023-03-15T06:04:32.967Z,2.90
2023-03-15T06:05:32.943Z,2.92
2023-03-15T06:06:33.861Z,2.93
2023-03-15T06:07:32.880Z,2.92
2023-03-15T06:08:32.897Z,2.93
2023-03-15T06:09:32.859Z,2.95
2023-03-15T06:10:32.850Z,2.96
2023-03-15T06:11:32.837Z,2.99
2023-03-15T06:12:32.851Z,2.97
2023-03-15T06:13:32.827Z,2.97
2023-03-15T06:14:32.799Z,2.99
2023-03-15T06:15:32.778Z,3.00
2023-03-15T06:16:32.797Z,2.99
2023-03-15T06:17:32.761Z,3.00
2023-03-15T06:18:32.756Z,2.99
2023-03-15T06:19:32.726Z,3.03
2023-03-15T06:20:32.755Z,3.02
2023-03-15T06:21:32.711Z,3.03
2023-03-15T06:22:32.694Z,3.02
2023-03-15T06:23:32.690Z,3.03
2023-03-15T06:24:32.676Z,3.05
2023-03-15T06:25:32.646Z,3.05
2023-03-15T06:26:32.653Z,3.05
2023-03-15T06:27:32.668Z,3.05
2023-03-15T06:28:32.624Z,3.08
2023-03-15T06:29:32.603Z,3.06
2023-03-15T06:30:32.624Z,3.10
2023-03-15T06:31:32.589Z,3.08
2023-03-15T06:32:32.608Z,3.10
2023-03-15T06:33:32.563Z,3.11
2023-03-15T06:34:32.541Z,3.13
2023-03-15T06:35:32.587Z,3.14
2023-03-15T06:36:32.522Z,3.13
2023-03-15T06:37:35.358Z,3.13
2023-03-15T06:38:32.561Z,3.14
2023-03-15T06:39:32.470Z,3.14
2023-03-15T06:40:32.465Z,3.13
2023-03-15T06:41:32.453Z,3.14
2023-03-15T06:42:32.433Z,3.13
2023-03-15T06:43:32.420Z,3.15
2023-03-15T06:44:32.431Z,3.20
2023-03-15T06:45:32.394Z,3.20
2023-03-15T06:46:32.408Z,3.20
2023-03-15T06:47:32.370Z,3.20
2023-03-15T06:48:32.370Z,3.21
2023-03-15T06:49:32.340Z,3.24
2023-03-15T06:50:46.197Z,3.26
2023-03-15T06:51:33.318Z,3.28
2023-03-15T06:52:32.312Z,3.28
2023-03-15T06:53:32.356Z,3.29
2023-03-15T06:54:32.277Z,3.32
2023-03-15T06:55:32.258Z,3.35
2023-03-15T06:56:32.287Z,3.36
2023-03-15T06:57:32.257Z,3.40
2023-03-15T06:58:32.245Z,3.40
2023-03-15T06:59:32.217Z,3.42
2023-03-15T07:00:32.202Z,3.47
2023-03-15T07:01:32.228Z,3.50
2023-03-15T07:02:32.198Z,3.54
2023-03-15T07:03:32.151Z,3.57
2023-03-15T07:04:32.158Z,3.60
2023-03-15T07:05:32.133Z,3.65
2023-03-15T07:06:32.130Z,3.68
2023-03-15T07:07:32.126Z,3.68
2023-03-15T07:08:32.088Z,3.69
2023-03-15T07:09:32.097Z,3.80
2023-03-15T07:10:32.128Z,3.97
2023-03-15T07:11:32.073Z,4.05
2023-03-15T07:12:32.052Z,4.23
2023-03-15T07:13:32.029Z,4.33
2023-03-15T07:14:32.039Z,4.33
2023-03-15T07:15:32.053Z,4.15
2023-03-15T07:16:32.017Z,4.16
2023-03-15T07:17:31.991Z,4.15
2023-03-15T07:18:31.978Z,4.20
2023-03-15T07:19:32.013Z,4.27
2023-03-15T07:20:31.959Z,4.24
2023-03-15T07:21:31.940Z,4.20
2023-03-15T07:22:31.933Z,4.12
2023-03-15T07:23:31.904Z,4.29
2023-03-15T07:24:31.956Z,4.24
2023-03-15T07:25:33.273Z,4.18
2023-03-15T07:26:31.886Z,4.16
2023-03-15T07:27:31.877Z,4.42
2023-03-15T07:28:31.850Z,4.51
2023-03-15T07:29:31.853Z,4.37
2023-03-15T07:30:31.828Z,4.55
2023-03-15T07:31:31.817Z,4.59
2023-03-15T07:32:31.940Z,4.72
2023-03-15T07:33:31.798Z,4.73
2023-03-15T07:34:31.786Z,4.84
2023-03-15T07:35:31.776Z,5.07
2023-03-15T07:36:31.755Z,5.13
2023-03-15T07:37:31.733Z,5.15
2023-03-15T07:38:31.740Z,5.18
2023-03-15T07:39:31.734Z,5.13
2023-03-15T07:40:31.686Z,5.28
2023-03-15T07:41:31.673Z,5.38
2023-03-15T07:42:31.663Z,5.49
2023-03-15T07:43:31.656Z,5.40
2023-03-15T07:44:31.651Z,5.25
2023-03-15T07:45:31.629Z,5.21
2023-03-15T07:46:31.691Z,5.07
2023-03-15T07:47:31.616Z,4.88
2023-03-15T07:48:31.633Z,4.91
2023-03-15T07:49:31.642Z,4.96
2023-03-15T07:50:31.600Z,4.99
2023-03-15T07:51:31.549Z,4.92
2023-03-15T07:52:31.539Z,4.85
2023-03-15T07:53:31.529Z,4.84
2023-03-15T07:54:31.523Z,4.78
2023-03-15T07:55:31.509Z,4.86
2023-03-15T07:56:31.498Z,4.86
2023-03-15T07:57:31.466Z,4.94
2023-03-15T07:58:31.502Z,4.88
2023-03-15T07:59:31.456Z,4.80
2023-03-15T08:00:31.444Z,4.70
2023-03-15T08:01:31.442Z,4.50
2023-03-15T08:02:31.437Z,4.36
2023-03-15T08:03:31.428Z,4.37
2023-03-15T08:04:31.393Z,4.30
2023-03-15T08:05:31.377Z,4.24
2023-03-15T08:06:31.355Z,4.24
2023-03-15T08:07:31.329Z,4.18
2023-03-15T08:08:31.322Z,4.44
2023-03-15T08:09:31.331Z,4.51
2023-03-15T08:10:31.305Z,4.65
2023-03-15T08:11:31.335Z,4.72
2023-03-15T08:12:31.289Z,5.25
2023-03-15T08:13:31.288Z,5.38
2023-03-15T08:14:31.274Z,5.39
2023-03-15T08:15:31.236Z,5.25
2023-03-15T08:16:31.348Z,5.12
2023-03-15T08:17:31.193Z,4.88
2023-03-15T08:18:31.196Z,4.77
2023-03-15T08:19:31.206Z,4.63
2023-03-15T08:20:31.203Z,4.67
2023-03-15T08:21:31.155Z,4.77
2023-03-15T08:22:31.144Z,4.84
2023-03-15T08:23:31.126Z,4.89
2023-03-15T08:24:31.131Z,4.86
2023-03-15T08:25:31.129Z,4.94
2023-03-15T08:26:31.109Z,5.02
2023-03-15T08:27:31.089Z,4.97
2023-03-15T08:28:31.073Z,5.02
2023-03-15T08:29:31.058Z,4.96
2023-03-15T08:30:31.037Z,4.91
2023-03-15T08:31:31.059Z,5.04
2023-03-15T08:32:31.136Z,5.04
2023-03-15T08:33:38.520Z,5.04
2023-03-15T08:34:30.991Z,4.97
2023-03-15T08:35:30.968Z,5.06
2023-03-15T08:36:30.986Z,5.13
2023-03-15T08:37:30.944Z,5.00
2023-03-15T08:38:30.938Z,4.91
2023-03-15T08:39:30.951Z,5.13
2023-03-15T08:40:30.926Z,5.38
2023-03-15T08:41:30.888Z,5.67
2023-03-15T08:42:30.890Z,5.67
2023-03-15T08:43:30.875Z,5.60
2023-03-15T08:44:30.881Z,5.65
2023-03-15T08:45:33.012Z,5.67
2023-03-15T08:46:30.871Z,5.64
2023-03-15T08:47:30.818Z,5.78
2023-03-15T08:48:30.808Z,5.46
2023-03-15T08:49:30.796Z,5.33
2023-03-15T08:50:30.776Z,5.27
2023-03-15T08:51:30.760Z,5.20
2023-03-15T08:52:30.756Z,5.12
2023-03-15T08:53:30.734Z,5.09
2023-03-15T08:54:30.734Z,5.03
2023-03-15T08:55:30.705Z,5.17
2023-03-15T08:56:30.696Z,5.40
2023-03-15T08:57:30.684Z,5.65
2023-03-15T08:58:30.672Z,5.83
2023-03-15T08:59:32.073Z,6.11
2023-03-15T09:00:30.651Z,5.99
2023-03-15T09:01:30.647Z,5.81
2023-03-15T09:02:30.685Z,5.82
2023-03-15T09:03:30.601Z,5.63
2023-03-15T09:04:30.737Z,5.63
2023-03-15T09:05:30.603Z,5.53
2023-03-15T09:06:30.563Z,5.24
2023-03-15T09:07:30.551Z,5.09
2023-03-15T09:08:30.685Z,5.10
2023-03-15T09:09:30.543Z,5.15
2023-03-15T09:10:30.522Z,5.51
2023-03-15T09:11:30.520Z,5.86
2023-03-15T09:12:30.491Z,6.31
2023-03-15T09:13:30.480Z,6.66
2023-03-15T09:14:30.479Z,6.71
2023-03-15T09:15:30.454Z,6.67
2023-03-15T09:16:30.470Z,6.66
2023-03-15T09:17:30.418Z,6.54
2023-03-15T09:18:30.416Z,6.19
2023-03-15T09:20:30.379Z,5.57
2023-03-15T09:21:30.377Z,5.51
2023-03-15T09:22:39.109Z,5.51
2023-03-15T09:23:31.351Z,5.78
2023-03-15T09:24:30.342Z,5.90
2023-03-15T09:25:30.337Z,5.93
2023-03-15T09:26:30.308Z,6.09
2023-03-15T09:27:30.303Z,6.44
2023-03-15T09:28:30.283Z,6.46
2023-03-15T09:29:30.295Z,6.84
2023-03-15T09:30:30.266Z,6.73
2023-03-15T09:31:30.277Z,6.76
2023-03-15T09:32:30.264Z,6.46
2023-03-15T09:33:30.239Z,6.12
2023-03-15T09:34:33.263Z,5.79
2023-03-15T09:35:31.231Z,5.76
2023-03-15T09:36:30.196Z,6.12
2023-03-15T09:37:30.184Z,6.38
2023-03-15T09:38:30.157Z,6.70
2023-03-15T09:39:30.164Z,6.77
2023-03-15T09:40:30.151Z,6.98
2023-03-15T09:41:30.144Z,6.80
2023-03-15T09:42:30.108Z,6.56
2023-03-15T09:43:30.094Z,6.71
2023-03-15T09:44:30.091Z,6.80
2023-03-15T09:45:30.075Z,6.80
2023-03-15T09:46:30.118Z,6.51
2023-03-15T09:47:30.059Z,6.36
2023-03-15T09:48:30.029Z,6.40
2023-03-15T09:49:30.038Z,6.49
2023-03-15T09:50:30.033Z,6.70
2023-03-15T09:51:30.029Z,6.89
2023-03-15T09:52:29.985Z,6.59
2023-03-15T09:53:29.977Z,6.34
2023-03-15T09:54:29.989Z,6.12
2023-03-15T09:55:29.964Z,6.28
2023-03-15T09:56:30.017Z,6.88
2023-03-15T09:57:29.955Z,7.39
2023-03-15T09:58:29.921Z,7.31
2023-03-15T09:59:29.895Z,7.06
2023-03-15T10:00:29.901Z,7.02
2023-03-15T10:01:29.956Z,7.39
2023-03-15T10:02:29.938Z,7.72
2023-03-15T10:03:29.929Z,7.87
2023-03-15T10:04:29.844Z,7.93
2023-03-15T10:05:29.852Z,8.01
2023-03-15T10:06:29.833Z,8.26
2023-03-15T10:07:29.805Z,8.37
2023-03-15T10:08:29.793Z,8.10
2023-03-15T10:09:29.795Z,7.55
2023-03-15T10:10:29.773Z,7.43
2023-03-15T10:11:29.779Z,7.53
2023-03-15T10:12:29.733Z,7.46
2023-03-15T10:13:29.722Z,7.45
2023-03-15T10:14:29.753Z,7.24
2023-03-15T10:15:29.812Z,7.23
2023-03-15T10:16:29.748Z,7.34
2023-03-15T10:17:29.701Z,7.46
2023-03-15T10:18:29.696Z,7.72
2023-03-15T10:19:29.652Z,8.12
2023-03-15T10:20:29.660Z,7.85
2023-03-15T10:21:29.635Z,8.02
2023-03-15T10:22:29.614Z,8.45
2023-03-15T10:23:29.611Z,8.41
2023-03-15T10:24:29.592Z,8.12
2023-03-15T10:25:29.569Z,8.01
2023-03-15T10:26:29.545Z,8.10
2023-03-15T10:27:29.534Z,8.58
2023-03-15T10:28:30.716Z,9.02
2023-03-15T10:29:29.505Z,9.18
2023-03-15T10:30:29.547Z,8.99
2023-03-15T10:31:43.449Z,8.52
2023-03-15T10:32:30.489Z,8.20
2023-03-15T10:33:29.456Z,7.79
2023-03-15T10:34:29.447Z,7.77
2023-03-15T10:35:29.428Z,7.72
2023-03-15T10:36:29.454Z,7.97
2023-03-15T10:37:29.385Z,8.22
2023-03-15T10:38:29.405Z,8.53
2023-03-15T10:39:29.379Z,8.84
2023-03-15T10:40:29.377Z,9.04
2023-03-15T10:41:29.375Z,9.38
2023-03-15T10:42:29.356Z,9.39
2023-03-15T10:43:29.328Z,9.66
2023-03-15T10:44:29.303Z,9.78
2023-03-15T10:45:29.320Z,9.47
2023-03-15T10:46:29.352Z,9.13
2023-03-15T10:47:29.262Z,8.62
2023-03-15T10:48:29.248Z,8.79
2023-03-15T10:49:29.234Z,8.43
2023-03-15T10:50:29.295Z,8.38
2023-03-15T10:51:29.214Z,8.44
2023-03-15T10:52:29.201Z,8.26
2023-03-15T10:53:29.184Z,8.28
2023-03-15T10:54:29.171Z,8.12
2023-03-15T10:55:29.183Z,7.89
2023-03-15T10:56:29.130Z,7.64
2023-03-15T10:57:29.125Z,7.63
2023-03-15T10:58:29.138Z,7.50
2023-03-15T10:59:29.109Z,7.58
2023-03-15T11:00:29.105Z,7.40
2023-03-15T11:01:29.198Z,7.75
2023-03-15T11:02:29.115Z,7.98
2023-03-15T11:03:29.048Z,8.12
2023-03-15T11:04:29.052Z,8.59
2023-03-15T11:05:29.040Z,8.65
2023-03-15T11:06:29.014Z,8.65
2023-03-15T11:07:29.003Z,8.91
2023-03-15T11:08:28.993Z,9.13
2023-03-15T11:09:28.969Z,9.28
2023-03-15T11:10:28.988Z,9.13
2023-03-15T11:11:28.951Z,8.86
2023-03-15T11:12:28.938Z,9.29
2023-03-15T11:13:28.937Z,9.54
2023-03-15T11:14:28.903Z,9.28
2023-03-15T11:15:28.921Z,8.87
2023-03-15T11:16:28.924Z,8.87
2023-03-15T11:17:28.936Z,8.80
2023-03-15T11:18:28.862Z,8.86
2023-03-15T11:19:28.859Z,9.31
2023-03-15T11:20:28.844Z,9.29
2023-03-15T11:21:28.822Z,9.20
2023-03-15T11:22:28.814Z,9.33
2023-03-15T11:23:28.791Z,9.68
2023-03-15T11:24:28.841Z,9.89
2023-03-15T11:25:28.788Z,9.81
2023-03-15T11:26:32.469Z,9.14
2023-03-15T11:27:28.777Z,8.36
2023-03-15T11:28:28.749Z,7.95
2023-03-15T11:29:28.720Z,7.86
2023-03-15T11:30:28.710Z,8.25
2023-03-15T11:31:28.745Z,8.40
2023-03-15T11:32:28.703Z,8.95
2023-03-15T11:33:28.668Z,9.39
2023-03-15T11:34:28.656Z,9.87
2023-03-15T11:35:28.682Z,10.32
2023-03-15T11:36:28.617Z,10.38
2023-03-15T11:37:28.606Z,10.04
2023-03-15T11:38:28.596Z,9.68
2023-03-15T11:39:28.597Z,9.79
2023-03-15T11:40:28.579Z,9.93
2023-03-15T11:41:28.592Z,9.75
2023-03-15T11:42:28.538Z,9.75
2023-03-15T11:43:28.539Z,8.94
2023-03-15T11:44:28.530Z,8.52
2023-03-15T11:45:28.557Z,8.20
2023-03-15T11:46:35.515Z,8.18
2023-03-15T11:47:28.473Z,8.19
2023-03-15T11:48:28.454Z,8.25
2023-03-15T11:49:28.452Z,8.47
2023-03-15T11:50:28.450Z,8.65
2023-03-15T11:51:28.423Z,9.10
2023-03-15T11:52:28.407Z,9.57
2023-03-15T11:53:28.394Z,9.69
2023-03-15T11:54:28.394Z,9.84
2023-03-15T11:55:28.405Z,10.09
2023-03-15T11:56:28.359Z,10.36
2023-03-15T11:57:28.341Z,10.56
2023-03-15T11:58:28.333Z,10.68
2023-03-15T11:59:28.321Z,10.45
2023-03-15T12:00:28.312Z,10.53
2023-03-15T12:01:28.293Z,10.29
2023-03-15T12:02:28.375Z,10.25
2023-03-15T12:03:28.367Z,10.07
2023-03-15T12:04:28.273Z,10.33
2023-03-15T12:05:28.252Z,10.02
2023-03-15T12:06:28.221Z,9.78
2023-03-15T12:07:28.211Z,9.93
2023-03-15T12:08:28.201Z,9.89
2023-03-15T12:09:28.191Z,9.57
2023-03-15T12:10:28.181Z,9.21
2023-03-15T12:11:28.168Z,8.96
2023-03-15T12:12:28.157Z,8.87
2023-03-15T12:13:28.133Z,8.77
2023-03-15T12:14:28.124Z,8.52
2023-03-15T12:15:28.155Z,8.47
2023-03-15T12:16:28.100Z,8.52
2023-03-15T12:17:28.081Z,8.74
2023-03-15T12:18:28.077Z,8.99
2023-03-15T12:19:28.059Z,9.38
2023-03-15T12:20:28.062Z,9.60
2023-03-15T12:21:28.031Z,9.36
2023-03-15T12:22:28.009Z,9.58
2023-03-15T12:23:28.008Z,10.12
2023-03-15T12:24:27.990Z,10.47
2023-03-15T12:25:28.002Z,10.29
2023-03-15T12:26:27.959Z,10.48
2023-03-15T12:27:27.949Z,10.34
2023-03-15T12:28:27.949Z,10.45
2023-03-15T12:29:27.928Z,10.56
2023-03-15T12:30:27.915Z,10.44
2023-03-15T12:31:27.898Z,10.40
2023-03-15T12:32:27.928Z,10.66
2023-03-15T12:33:27.873Z,10.76
2023-03-15T12:34:27.856Z,10.59
2023-03-15T12:35:27.855Z,10.76
2023-03-15T12:36:34.826Z,10.82
2023-03-15T12:37:34.823Z,10.67
2023-03-15T12:38:34.808Z,10.11
2023-03-15T12:39:35.796Z,10.17
2023-03-15T12:40:35.285Z,10.45
2023-03-15T12:41:34.772Z,10.38
2023-03-15T12:42:34.764Z,10.45
2023-03-15T12:43:27.736Z,10.18
2023-03-15T12:44:27.739Z,9.64
2023-03-15T12:45:27.738Z,9.57
2023-03-15T12:46:27.739Z,9.94
2023-03-15T12:47:27.685Z,9.94
2023-03-15T12:48:27.675Z,9.94
2023-03-15T12:49:27.668Z,9.84
2023-03-15T12:50:27.656Z,9.94
2023-03-15T12:51:27.638Z,10.01
2023-03-15T12:52:27.615Z,9.99
2023-03-15T12:53:27.622Z,9.57
2023-03-15T12:54:27.584Z,9.38
2023-03-15T12:55:27.586Z,9.15
2023-03-15T12:56:27.580Z,8.84
2023-03-15T12:57:29.935Z,8.63
2023-03-15T12:58:27.533Z,8.43
2023-03-15T12:59:27.531Z,8.43
2023-03-15T13:00:27.517Z,8.63
2023-03-15T13:01:27.569Z,8.59
2023-03-15T13:02:41.784Z,8.48
2023-03-15T13:03:28.510Z,8.18
2023-03-15T13:04:27.523Z,8.16
2023-03-15T13:05:27.455Z,8.26
2023-03-15T13:06:27.444Z,8.29
2023-03-15T13:07:27.435Z,8.30
2023-03-15T13:08:27.420Z,8.38
2023-03-15T13:09:27.415Z,8.38
2023-03-15T13:10:28.751Z,8.44
2023-03-15T13:11:27.413Z,8.22
2023-03-15T13:12:27.354Z,8.22
2023-03-15T13:13:27.354Z,8.20
2023-03-15T13:14:27.332Z,8.28
2023-03-15T13:15:27.325Z,8.26
2023-03-15T13:16:27.398Z,8.12
2023-03-15T13:17:27.306Z,7.53
2023-03-15T13:18:27.295Z,7.48